createdAt,value
2018-06-24T00:01:39.606Z,11.79
2018-06-24T00:04:07.538Z,11.94
2018-06-24T00:06:35.218Z,11.86
2018-06-24T00:09:03.596Z,12.01
2018-06-24T00:11:31.323Z,11.99
2018-06-24T00:13:59.094Z,11.75
2018-06-24T00:16:26.743Z,11.61
2018-06-24T00:18:54.439Z,11.57
2018-06-24T00:21:22.127Z,11.63
2018-06-24T00:23:49.831Z,11.62
2018-06-24T00:26:17.562Z,11.69
2018-06-24T00:28:45.316Z,11.64
2018-06-24T00:31:13.054Z,11.76
2018-06-24T00:33:40.742Z,11.61
2018-06-24T00:36:08.478Z,11.70
2018-06-24T00:38:36.170Z,11.68
2018-06-24T00:41:03.868Z,11.64
2018-06-24T00:43:31.542Z,11.56
2018-06-24T00:45:59.238Z,11.53
2018-06-24T00:48:26.930Z,11.51
2018-06-24T00:50:54.660Z,11.52
2018-06-24T00:53:22.358Z,11.56
2018-06-24T00:55:50.191Z,11.65
2018-06-24T00:58:17.878Z,11.58
2018-06-24T01:00:45.545Z,11.47
2018-06-24T01:03:13.267Z,11.40
2018-06-24T01:05:41.455Z,11.35
2018-06-24T01:08:09.120Z,11.35
2018-06-24T01:10:36.834Z,11.37
2018-06-24T01:13:04.619Z,11.33
2018-06-24T01:15:32.394Z,11.31
2018-06-24T01:18:00.110Z,11.30
2018-06-24T01:20:27.861Z,11.60
2018-06-24T01:22:55.725Z,11.44
2018-06-24T01:25:23.403Z,11.32
2018-06-24T01:27:51.059Z,11.42
2018-06-24T01:30:18.758Z,11.36
2018-06-24T01:32:46.414Z,11.34
2018-06-24T01:35:14.188Z,11.22
2018-06-24T01:37:41.879Z,11.22
2018-06-24T01:40:09.590Z,11.22
2018-06-24T01:42:37.352Z,11.07
2018-06-24T01:45:05.062Z,11.20
2018-06-24T01:47:32.856Z,11.27
2018-06-24T01:50:00.699Z,11.14
2018-06-24T01:52:28.383Z,11.35
2018-06-24T01:54:56.052Z,11.23
2018-06-24T01:57:23.768Z,11.08
2018-06-24T01:59:51.455Z,10.91
2018-06-24T02:02:19.169Z,11.13
2018-06-24T02:04:46.860Z,11.09
2018-06-24T02:07:14.583Z,10.93
2018-06-24T02:09:42.331Z,10.91
2018-06-24T02:12:10.046Z,10.96
2018-06-24T02:14:37.751Z,11.00
2018-06-24T02:17:05.583Z,11.04
2018-06-24T02:19:33.286Z,11.07
2018-06-24T02:22:00.979Z,11.21
2018-06-24T02:24:28.748Z,11.24
2018-06-24T02:26:56.462Z,11.36
2018-06-24T02:29:24.331Z,11.36
2018-06-24T02:31:52.030Z,11.25
2018-06-24T02:34:19.731Z,11.27
2018-06-24T02:36:47.486Z,11.18
2018-06-24T02:39:15.175Z,11.15
2018-06-24T02:41:42.902Z,11.25
2018-06-24T02:44:10.572Z,11.21
2018-06-24T02:46:39.324Z,11.35
2018-06-24T02:49:07.020Z,11.40
2018-06-24T02:51:34.736Z,11.55
2018-06-24T02:54:02.491Z,11.50
2018-06-24T02:56:30.163Z,11.42
2018-06-24T02:58:58.009Z,11.27
2018-06-24T03:01:25.671Z,11.14
2018-06-24T03:03:53.351Z,11.10
2018-06-24T03:06:21.073Z,11.12
2018-06-24T03:08:48.732Z,11.15
2018-06-24T03:11:17.075Z,11.22
2018-06-24T03:13:44.796Z,11.22
2018-06-24T03:16:12.513Z,11.23
2018-06-24T03:18:40.217Z,11.24
2018-06-24T03:21:07.932Z,11.39
2018-06-24T03:23:35.627Z,11.43
2018-06-24T03:26:03.279Z,11.36
2018-06-24T03:28:30.966Z,11.37
2018-06-24T03:30:58.626Z,11.34
2018-06-24T03:33:26.333Z,11.36
2018-06-24T03:35:54.005Z,11.35
2018-06-24T03:38:21.763Z,11.31
2018-06-24T03:40:49.426Z,11.33
2018-06-24T03:43:17.094Z,11.37
2018-06-24T03:45:44.737Z,11.36
2018-06-24T03:48:12.429Z,11.35
2018-06-24T03:50:40.155Z,11.42
2018-06-24T03:53:07.858Z,11.41
2018-06-24T03:55:35.547Z,11.43
2018-06-24T03:58:03.534Z,11.44
2018-06-24T04:00:31.193Z,11.38
2018-06-24T04:02:58.890Z,11.42
2018-06-24T04:05:26.562Z,11.49
2018-06-24T04:07:54.283Z,11.54
2018-06-24T04:10:21.978Z,11.56
2018-06-24T04:12:49.670Z,11.55
2018-06-24T04:15:17.345Z,11.47
2018-06-24T04:17:44.990Z,11.57
2018-06-24T04:20:12.699Z,11.65
2018-06-24T04:22:40.410Z,11.69
2018-06-24T04:25:08.160Z,11.70
2018-06-24T04:27:35.887Z,11.85
2018-06-24T04:30:04.448Z,12.12
2018-06-24T04:32:32.115Z,12.30
2018-06-24T04:34:59.834Z,12.56
2018-06-24T04:37:27.572Z,12.76
2018-06-24T04:39:55.244Z,12.95
2018-06-24T04:42:23.001Z,13.17
2018-06-24T04:44:50.731Z,13.09
2018-06-24T04:47:18.455Z,13.20
2018-06-24T04:49:46.172Z,13.02
2018-06-24T04:52:13.878Z,13.07
2018-06-24T04:54:41.542Z,13.07
2018-06-24T04:57:09.247Z,13.10
2018-06-24T04:59:36.979Z,13.06
2018-06-24T05:02:04.736Z,13.14
2018-06-24T05:04:32.463Z,13.23
2018-06-24T05:07:00.171Z,13.13
2018-06-24T05:09:27.916Z,13.08
2018-06-24T05:11:55.625Z,13.08
2018-06-24T05:14:23.308Z,13.00
2018-06-24T05:16:51.000Z,13.15
2018-06-24T05:19:18.726Z,13.17
2018-06-24T05:21:46.399Z,13.13
2018-06-24T05:24:15.167Z,13.34
2018-06-24T05:26:42.858Z,13.58
2018-06-24T05:29:10.516Z,13.74
2018-06-24T05:31:38.244Z,13.68
2018-06-24T05:34:06.010Z,13.80
2018-06-24T05:36:33.683Z,13.96
2018-06-24T05:39:01.376Z,14.07
2018-06-24T05:41:29.127Z,14.29
2018-06-24T05:43:56.814Z,14.63
2018-06-24T05:46:24.500Z,14.47
2018-06-24T05:48:52.226Z,14.26
2018-06-24T05:51:20.122Z,14.46
2018-06-24T05:53:47.858Z,14.59
2018-06-24T05:56:15.559Z,14.47
2018-06-24T05:58:43.282Z,14.38
2018-06-24T06:01:11.017Z,14.28
2018-06-24T06:03:38.746Z,14.44
2018-06-24T06:06:06.454Z,14.45
2018-06-24T06:08:34.157Z,14.48
2018-06-24T06:11:01.829Z,14.42
2018-06-24T06:13:29.570Z,14.49
2018-06-24T06:15:57.235Z,14.52
2018-06-24T06:18:24.954Z,14.72
2018-06-24T06:20:52.655Z,14.76
2018-06-24T06:23:20.356Z,14.94
2018-06-24T06:25:48.028Z,14.75
2018-06-24T06:28:15.754Z,15.00
2018-06-24T06:30:43.446Z,15.25
2018-06-24T06:33:11.151Z,15.47
2018-06-24T06:35:38.835Z,15.82
2018-06-24T06:38:06.653Z,16.09
2018-06-24T06:40:34.470Z,16.61
2018-06-24T06:43:02.361Z,16.44
2018-06-24T06:45:30.231Z,16.44
2018-06-24T06:47:57.832Z,16.97
2018-06-24T06:50:25.572Z,17.50
2018-06-24T06:52:53.432Z,17.82
2018-06-24T06:55:21.130Z,18.00
2018-06-24T06:57:48.875Z,18.19
2018-06-24T07:00:16.583Z,18.41
2018-06-24T07:02:44.268Z,18.60
2018-06-24T07:05:11.971Z,18.76
2018-06-24T07:07:39.682Z,18.43
2018-06-24T07:10:07.475Z,18.29
2018-06-24T07:12:35.158Z,18.24
2018-06-24T07:15:02.949Z,17.82
2018-06-24T07:17:30.661Z,17.90
2018-06-24T07:19:58.361Z,18.03
2018-06-24T07:22:26.069Z,18.33
2018-06-24T07:24:53.854Z,18.37
2018-06-24T07:27:21.624Z,18.22
2018-06-24T07:29:49.351Z,18.17
2018-06-24T07:32:17.083Z,18.17
2018-06-24T07:34:44.842Z,18.45
2018-06-24T07:37:12.705Z,18.51
2018-06-24T07:39:40.389Z,18.55
2018-06-24T07:42:08.248Z,19.49
2018-06-24T07:44:35.983Z,19.76
2018-06-24T07:47:03.795Z,19.84
2018-06-24T07:49:31.618Z,20.05
2018-06-24T07:51:59.359Z,20.19
2018-06-24T07:54:27.089Z,20.58
2018-06-24T07:56:55.810Z,21.22
2018-06-24T07:59:23.490Z,20.76
2018-06-24T08:01:51.200Z,21.31
2018-06-24T08:04:18.924Z,21.60
2018-06-24T08:06:46.747Z,21.47
2018-06-24T08:09:14.453Z,21.91
2018-06-24T08:11:42.246Z,21.78
2018-06-24T08:14:09.964Z,21.56
2018-06-24T08:16:37.672Z,21.29
2018-06-24T08:19:05.408Z,21.35
2018-06-24T08:21:33.195Z,21.56
2018-06-24T08:24:00.983Z,21.02
2018-06-24T08:26:28.702Z,20.96
2018-06-24T08:28:56.421Z,20.65
2018-06-24T08:31:24.131Z,20.46
2018-06-24T08:33:52.092Z,20.06
2018-06-24T08:36:19.893Z,20.20
2018-06-24T08:38:47.623Z,19.76
2018-06-24T08:41:15.335Z,19.85
2018-06-24T08:43:43.027Z,19.99
2018-06-24T08:46:10.777Z,20.66
2018-06-24T08:48:38.558Z,20.02
2018-06-24T08:51:06.285Z,20.11
2018-06-24T08:53:34.115Z,20.46
2018-06-24T08:56:02.112Z,21.11
2018-06-24T08:58:29.848Z,22.03
2018-06-24T09:00:57.579Z,23.03
2018-06-24T09:03:25.274Z,23.27
2018-06-24T09:05:53.044Z,23.63
2018-06-24T09:08:20.732Z,23.36
2018-06-24T09:10:48.463Z,24.13
2018-06-24T09:13:16.195Z,23.66
2018-06-24T09:15:43.998Z,23.69
2018-06-24T09:18:11.651Z,23.15
2018-06-24T09:20:39.349Z,23.12
2018-06-24T09:23:07.111Z,23.41
2018-06-24T09:25:35.084Z,23.34
2018-06-24T09:28:02.946Z,23.72
2018-06-24T09:30:30.650Z,23.46
2018-06-24T09:32:58.373Z,24.15
2018-06-24T09:35:26.081Z,24.54
2018-06-24T09:37:53.804Z,24.52
2018-06-24T09:40:21.492Z,25.35
2018-06-24T09:42:49.269Z,25.34
2018-06-24T09:45:16.969Z,25.92
2018-06-24T09:47:44.675Z,25.75
2018-06-24T09:50:12.367Z,25.56
2018-06-24T09:52:40.142Z,25.94
2018-06-24T09:55:07.902Z,26.64
2018-06-24T09:57:35.625Z,26.85
2018-06-24T10:00:03.492Z,27.46
2018-06-24T10:02:31.275Z,27.26
2018-06-24T10:04:58.999Z,28.06
2018-06-24T10:07:26.745Z,28.04
2018-06-24T10:09:54.448Z,26.73
2018-06-24T10:12:22.192Z,26.70
2018-06-24T10:14:49.974Z,26.26
2018-06-24T10:17:17.724Z,25.92
2018-06-24T10:19:45.403Z,26.35
2018-06-24T10:22:13.167Z,26.31
2018-06-24T10:24:40.903Z,27.30
2018-06-24T10:27:08.662Z,27.82
2018-06-24T10:29:36.347Z,28.01
2018-06-24T10:32:04.355Z,27.54
2018-06-24T10:34:32.033Z,27.01
2018-06-24T10:36:59.783Z,26.90
2018-06-24T10:39:27.562Z,26.84
2018-06-24T10:41:55.335Z,26.47
2018-06-24T10:44:23.352Z,26.63
2018-06-24T10:46:51.389Z,26.39
2018-06-24T10:49:19.100Z,26.10
2018-06-24T10:51:46.900Z,25.90
2018-06-24T10:54:14.662Z,26.01
2018-06-24T10:56:42.383Z,26.21
2018-06-24T10:59:10.119Z,26.57
2018-06-24T11:01:37.891Z,26.29
2018-06-24T11:04:05.654Z,26.34
2018-06-24T11:06:33.441Z,26.21
2018-06-24T11:09:01.222Z,26.60
2018-06-24T11:11:29.003Z,26.81
2018-06-24T11:13:56.758Z,27.27
2018-06-24T11:16:24.547Z,27.82
2018-06-24T11:18:52.256Z,27.25
2018-06-24T11:21:19.934Z,27.40
2018-06-24T11:23:47.683Z,26.19
2018-06-24T11:26:15.430Z,25.79
2018-06-24T11:28:43.137Z,25.08
2018-06-24T11:31:10.874Z,25.26
2018-06-24T11:33:38.608Z,25.80
2018-06-24T11:36:06.346Z,26.23
2018-06-24T11:38:34.073Z,26.30
2018-06-24T11:41:01.791Z,26.70
2018-06-24T11:43:29.487Z,26.03
2018-06-24T11:45:57.254Z,25.89
2018-06-24T11:48:25.011Z,25.56
2018-06-24T11:50:52.740Z,25.52
2018-06-24T11:53:20.545Z,24.90
2018-06-24T11:55:48.279Z,24.67
2018-06-24T11:58:16.061Z,24.44
2018-06-24T12:00:43.750Z,24.18
2018-06-24T12:03:11.480Z,24.66
2018-06-24T12:05:39.296Z,24.45
2018-06-24T12:08:07.046Z,24.38
2018-06-24T12:10:34.739Z,24.66
2018-06-24T12:13:02.683Z,24.58
2018-06-24T12:15:30.401Z,24.59
2018-06-24T12:17:58.108Z,25.05
2018-06-24T12:20:25.819Z,24.84
2018-06-24T12:22:53.557Z,24.14
2018-06-24T12:25:21.283Z,23.90
2018-06-24T12:27:48.990Z,24.20
2018-06-24T12:30:16.750Z,24.34
2018-06-24T12:32:44.491Z,24.18
2018-06-24T12:35:12.218Z,24.13
2018-06-24T12:37:39.938Z,24.24
2018-06-24T12:40:07.646Z,23.99
2018-06-24T12:42:35.406Z,24.15
2018-06-24T12:45:03.161Z,24.10
2018-06-24T12:47:30.969Z,23.74
2018-06-24T12:49:58.686Z,23.99
2018-06-24T12:52:26.428Z,24.00
2018-06-24T12:54:54.118Z,24.21
2018-06-24T12:57:21.814Z,24.01
2018-06-24T12:59:49.958Z,23.78
2018-06-24T13:02:17.324Z,23.74
2018-06-24T13:04:45.011Z,23.44
2018-06-24T13:07:12.759Z,23.56
2018-06-24T13:09:40.498Z,23.48
2018-06-24T13:12:07.984Z,23.27
2018-06-24T13:14:35.814Z,23.13
2018-06-24T13:17:03.734Z,22.97
2018-06-24T13:19:31.488Z,23.27
2018-06-24T13:21:59.182Z,23.50
2018-06-24T13:24:26.904Z,23.07
2018-06-24T13:26:54.652Z,23.03
2018-06-24T13:29:22.404Z,23.06
2018-06-24T13:31:50.100Z,22.93
2018-06-24T13:34:18.096Z,22.89
2018-06-24T13:36:45.819Z,22.97
2018-06-24T13:39:13.839Z,22.76
2018-06-24T13:41:41.542Z,22.31
2018-06-24T13:44:09.590Z,22.22
2018-06-24T13:46:37.379Z,21.95
2018-06-24T13:49:05.138Z,21.42
2018-06-24T13:51:33.097Z,21.46
2018-06-24T13:54:00.840Z,21.60
2018-06-24T13:56:28.566Z,21.50
2018-06-24T13:58:56.338Z,21.71
2018-06-24T14:01:24.028Z,21.55
2018-06-24T14:03:51.817Z,21.59
2018-06-24T14:06:19.597Z,21.74
2018-06-24T14:08:47.319Z,21.78
2018-06-24T14:11:15.002Z,21.74
2018-06-24T14:13:42.726Z,21.58
2018-06-24T14:16:10.442Z,21.52
2018-06-24T14:18:38.181Z,21.02
2018-06-24T14:21:05.947Z,20.88
2018-06-24T14:23:33.757Z,20.84
2018-06-24T14:26:01.425Z,20.59
2018-06-24T14:28:29.142Z,20.52
2018-06-24T14:30:56.887Z,20.62
2018-06-24T14:33:24.567Z,20.75
2018-06-24T14:35:52.265Z,20.45
2018-06-24T14:38:19.973Z,20.52
2018-06-24T14:40:48.604Z,20.59
2018-06-24T14:43:16.328Z,20.21
2018-06-24T14:45:44.054Z,20.20
2018-06-24T14:48:11.851Z,20.33
2018-06-24T14:50:39.596Z,20.30
2018-06-24T14:53:07.357Z,20.52
2018-06-24T14:55:35.133Z,20.65
2018-06-24T14:58:03.064Z,20.90
2018-06-24T15:00:30.871Z,20.92
2018-06-24T15:02:58.616Z,21.09
2018-06-24T15:05:26.342Z,21.14
2018-06-24T15:07:54.053Z,21.13
2018-06-24T15:10:21.806Z,21.02
2018-06-24T15:12:49.491Z,20.95
2018-06-24T15:15:17.279Z,20.71
2018-06-24T15:17:44.995Z,20.74
2018-06-24T15:20:12.673Z,20.71
2018-06-24T15:22:40.516Z,20.66
2018-06-24T15:25:08.389Z,20.63
2018-06-24T15:27:36.194Z,20.54
2018-06-24T15:30:04.033Z,20.56
2018-06-24T15:32:31.820Z,20.58
2018-06-24T15:34:59.584Z,20.64
2018-06-24T15:37:27.318Z,20.55
2018-06-24T15:39:55.126Z,20.20
2018-06-24T15:42:22.890Z,20.31
2018-06-24T15:44:50.714Z,20.36
2018-06-24T15:47:18.489Z,20.28
2018-06-24T15:49:46.248Z,20.20
2018-06-24T15:52:14.047Z,20.12
2018-06-24T15:54:41.927Z,19.97
2018-06-24T15:57:09.675Z,20.09
2018-06-24T15:59:37.523Z,20.11
2018-06-24T16:02:05.647Z,19.87
2018-06-24T16:04:33.433Z,19.85
2018-06-24T16:07:01.319Z,19.93
2018-06-24T16:09:29.175Z,20.07
2018-06-24T16:11:56.976Z,20.11
2018-06-24T16:14:24.903Z,20.08
2018-06-24T16:16:52.734Z,20.00
2018-06-24T16:19:20.450Z,19.87
2018-06-24T16:21:48.256Z,19.83
2018-06-24T16:24:16.023Z,19.77
2018-06-24T16:26:43.834Z,19.54
2018-06-24T16:29:11.588Z,19.56
2018-06-24T16:31:39.360Z,19.51
2018-06-24T16:34:07.125Z,19.57
2018-06-24T16:36:34.872Z,19.51
2018-06-24T16:39:03.150Z,19.50
2018-06-24T16:41:30.935Z,19.44
2018-06-24T16:43:58.708Z,19.50
2018-06-24T16:46:26.443Z,19.52
2018-06-24T16:48:54.190Z,19.62
2018-06-24T16:51:21.914Z,19.36
2018-06-24T16:53:49.731Z,19.18
2018-06-24T16:56:17.435Z,19.05
2018-06-24T16:58:45.154Z,19.00
2018-06-24T17:01:12.841Z,19.17
2018-06-24T17:03:40.573Z,19.20
2018-06-24T17:06:08.296Z,19.12
2018-06-24T17:08:35.999Z,19.10
2018-06-24T17:11:03.719Z,19.20
2018-06-24T17:13:33.625Z,19.07
2018-06-24T17:16:03.104Z,19.13
2018-06-24T17:18:30.807Z,19.13
2018-06-24T17:20:58.555Z,18.90
2018-06-24T17:23:26.258Z,18.99
2018-06-24T17:25:53.995Z,18.98
2018-06-24T17:28:21.728Z,19.05
2018-06-24T17:30:49.447Z,18.91
2018-06-24T17:33:17.202Z,18.66
2018-06-24T17:35:44.895Z,18.73
2018-06-24T17:38:12.671Z,18.66
2018-06-24T17:40:40.369Z,18.70
2018-06-24T17:43:08.081Z,18.57
2018-06-24T17:45:35.842Z,18.47
2018-06-24T17:48:03.583Z,18.48
2018-06-24T17:50:31.370Z,18.51
2018-06-24T17:52:59.064Z,18.45
2018-06-24T17:55:27.219Z,18.44
2018-06-24T17:57:55.234Z,18.42
2018-06-24T18:00:23.103Z,18.40
2018-06-24T18:02:50.846Z,18.41
2018-06-24T18:05:18.530Z,18.42
2018-06-24T18:07:46.358Z,18.34
2018-06-24T18:10:14.304Z,18.25
2018-06-24T18:12:42.177Z,18.26
2018-06-24T18:15:09.921Z,18.22
2018-06-24T18:17:37.850Z,18.05
2018-06-24T18:20:05.599Z,17.99
2018-06-24T18:22:33.353Z,17.94
2018-06-24T18:25:01.103Z,17.94
2018-06-24T18:27:28.848Z,17.91
2018-06-24T18:29:56.531Z,17.91
2018-06-24T18:32:24.259Z,17.71
2018-06-24T18:34:51.983Z,17.64
2018-06-24T18:37:19.728Z,17.57
2018-06-24T18:39:47.448Z,17.59
2018-06-24T18:42:15.161Z,17.58
2018-06-24T18:44:42.834Z,17.36
2018-06-24T18:47:10.587Z,17.36
2018-06-24T18:49:38.313Z,17.35
2018-06-24T18:52:06.067Z,17.37
2018-06-24T18:54:33.791Z,17.32
2018-06-24T18:57:01.599Z,17.28
2018-06-24T18:59:29.338Z,17.38
2018-06-24T19:01:57.075Z,17.36
2018-06-24T19:04:24.839Z,17.34
2018-06-24T19:06:52.541Z,17.28
2018-06-24T19:09:20.311Z,17.20
2018-06-24T19:11:48.010Z,17.17
2018-06-24T19:14:15.794Z,17.28
2018-06-24T19:16:43.527Z,17.20
2018-06-24T19:19:11.341Z,17.21
2018-06-24T19:21:39.137Z,17.27
2018-06-24T19:24:06.888Z,17.13
2018-06-24T19:26:34.616Z,17.18
2018-06-24T19:29:02.386Z,17.19
2018-06-24T19:31:30.126Z,17.15
2018-06-24T19:33:57.887Z,17.18
2018-06-24T19:36:25.587Z,17.26
2018-06-24T19:38:53.337Z,17.15
2018-06-24T19:41:21.383Z,17.16
2018-06-24T19:43:49.127Z,17.22
2018-06-24T19:46:16.875Z,17.23
2018-06-24T19:48:44.586Z,17.24
2018-06-24T19:51:12.294Z,17.14
2018-06-24T19:53:40.070Z,17.02
2018-06-24T19:56:07.778Z,16.92
2018-06-24T19:58:35.496Z,16.93
2018-06-24T20:01:03.222Z,16.81
2018-06-24T20:03:30.954Z,16.77
2018-06-24T20:05:58.662Z,16.72
2018-06-24T20:08:26.439Z,16.81
2018-06-24T20:10:54.141Z,16.81
2018-06-24T20:13:21.896Z,16.71
2018-06-24T20:15:49.662Z,16.57
2018-06-24T20:18:18.490Z,16.48
2018-06-24T20:20:46.230Z,16.34
2018-06-24T20:23:13.974Z,16.36
2018-06-24T20:25:41.830Z,16.42
2018-06-24T20:28:09.527Z,16.42
2018-06-24T20:30:37.290Z,16.41
2018-06-24T20:33:05.134Z,16.38
2018-06-24T20:35:32.892Z,16.31
2018-06-24T20:38:00.570Z,16.33
2018-06-24T20:40:28.304Z,16.29
2018-06-24T20:42:55.962Z,16.29
2018-06-24T20:45:23.738Z,16.35
2018-06-24T20:47:51.455Z,16.34
2018-06-24T20:50:19.220Z,16.19
2018-06-24T20:52:47.882Z,16.19
2018-06-24T20:55:15.625Z,16.29
2018-06-24T20:57:43.310Z,16.18
2018-06-24T21:00:11.014Z,16.15
2018-06-24T21:02:38.911Z,16.09
2018-06-24T21:05:06.621Z,16.03
2018-06-24T21:07:34.367Z,16.00
2018-06-24T21:10:02.066Z,15.95
2018-06-24T21:12:29.927Z,15.83
2018-06-24T21:14:57.645Z,15.87
2018-06-24T21:17:25.333Z,15.88
2018-06-24T21:19:53.036Z,15.96
2018-06-24T21:22:20.708Z,15.87
2018-06-24T21:24:48.434Z,15.92
2018-06-24T21:27:16.117Z,15.87
2018-06-24T21:29:43.824Z,15.85
2018-06-24T21:32:11.516Z,15.81
2018-06-24T21:34:39.249Z,15.75
2018-06-24T21:37:06.946Z,15.76
2018-06-24T21:39:34.682Z,15.70
2018-06-24T21:42:02.818Z,15.68
2018-06-24T21:44:30.522Z,15.65
2018-06-24T21:46:58.196Z,15.59
2018-06-24T21:49:26.031Z,15.50
2018-06-24T21:51:53.741Z,15.51
2018-06-24T21:54:21.496Z,15.38
2018-06-24T21:56:49.269Z,15.47
2018-06-24T21:59:17.010Z,15.34
2018-06-24T22:01:44.774Z,15.33
2018-06-24T22:04:12.491Z,15.41
2018-06-24T22:06:40.273Z,15.43
2018-06-24T22:09:09.110Z,15.39
2018-06-24T22:11:36.969Z,15.32
2018-06-24T22:14:04.730Z,15.39
2018-06-24T22:16:32.500Z,15.35
2018-06-24T22:19:00.189Z,15.28
2018-06-24T22:21:27.855Z,15.25
2018-06-24T22:23:55.562Z,15.25
2018-06-24T22:26:23.633Z,15.17
2018-06-24T22:28:51.394Z,15.18
2018-06-24T22:31:19.124Z,15.23
2018-06-24T22:33:46.817Z,15.24
2018-06-24T22:36:14.509Z,15.17
2018-06-24T22:38:42.246Z,15.16
2018-06-24T22:41:09.979Z,15.10
2018-06-24T22:43:37.653Z,15.11
2018-06-24T22:46:05.398Z,14.98
2018-06-24T22:48:33.124Z,14.97
2018-06-24T22:51:00.777Z,15.02
2018-06-24T22:53:28.552Z,14.95
2018-06-24T22:55:56.324Z,15.06
2018-06-24T22:58:24.091Z,15.02
2018-06-24T23:00:51.744Z,15.03
2018-06-24T23:03:19.358Z,14.93
2018-06-24T23:05:47.018Z,14.95
2018-06-24T23:08:14.729Z,14.94
2018-06-24T23:10:42.434Z,14.99
2018-06-24T23:13:10.080Z,14.96
2018-06-24T23:15:37.762Z,15.00
2018-06-24T23:18:05.462Z,14.93
2018-06-24T23:20:33.193Z,14.90
2018-06-24T23:23:00.873Z,14.73
2018-06-24T23:25:28.602Z,14.72
2018-06-24T23:27:56.304Z,14.61
2018-06-24T23:30:23.963Z,14.62
2018-06-24T23:32:51.662Z,14.66
2018-06-24T23:35:19.327Z,14.64
2018-06-24T23:37:47.029Z,14.70
2018-06-24T23:40:14.725Z,14.66
2018-06-24T23:42:42.419Z,14.58
2018-06-24T23:45:10.079Z,14.63
2018-06-24T23:47:38.060Z,14.53
2018-06-24T23:50:05.780Z,14.49
2018-06-24T23:52:33.507Z,14.47
2018-06-24T23:55:01.234Z,14.48
2018-06-24T23:57:28.893Z,14.55
2018-06-24T23:59:56.570Z,14.51
